createdAt,value
2019-03-20T00:00:12.517Z,23.00
2019-03-20T00:02:41.546Z,21.10
2019-03-20T00:05:11.229Z,21.20
2019-03-20T00:07:40.264Z,23.37
2019-03-20T00:10:11.058Z,19.60
2019-03-20T00:12:39.740Z,23.10
2019-03-20T00:15:23.449Z,21.13
2019-03-20T00:17:52.295Z,21.43
2019-03-20T00:20:28.282Z,22.27
2019-03-20T00:22:56.936Z,22.53
2019-03-20T00:25:25.738Z,22.70
2019-03-20T00:27:54.358Z,23.70
2019-03-20T00:30:23.094Z,24.23
2019-03-20T00:32:51.891Z,23.03
2019-03-20T00:35:20.614Z,24.07
2019-03-20T00:37:49.388Z,24.33
2019-03-20T00:40:18.848Z,24.17
2019-03-20T00:42:48.181Z,24.97
2019-03-20T00:45:23.143Z,23.30
2019-03-20T00:47:51.840Z,24.43
2019-03-20T00:50:21.290Z,24.70
2019-03-20T00:52:50.097Z,23.90
2019-03-20T00:55:19.625Z,24.53
2019-03-20T00:57:48.460Z,25.20
2019-03-20T01:00:19.597Z,25.30
2019-03-20T01:02:48.323Z,25.93
2019-03-20T01:05:17.460Z,26.23
2019-03-20T01:07:46.537Z,27.20
2019-03-20T01:10:21.014Z,25.23
2019-03-20T01:12:49.676Z,25.40
2019-03-20T01:15:18.501Z,28.50
2019-03-20T01:17:47.495Z,26.17
2019-03-20T01:20:18.263Z,27.57
2019-03-20T01:22:47.195Z,25.83
2019-03-20T01:25:16.646Z,23.90
2019-03-20T01:27:45.376Z,25.47
2019-03-20T01:30:34.655Z,23.43
2019-03-20T01:33:11.354Z,24.73
2019-03-20T01:35:40.840Z,25.40
2019-03-20T01:38:10.364Z,25.67
2019-03-20T01:40:40.465Z,27.50
2019-03-20T01:43:09.492Z,27.93
2019-03-20T01:45:38.470Z,28.33
2019-03-20T01:48:07.232Z,30.63
2019-03-20T01:50:36.059Z,29.53
2019-03-20T01:53:05.523Z,29.53
2019-03-20T01:55:34.160Z,29.33
2019-03-20T01:58:02.908Z,30.33
2019-03-20T02:00:32.023Z,30.67
2019-03-20T02:03:00.725Z,29.67
2019-03-20T02:05:35.808Z,28.37
2019-03-20T02:07:59.954Z,31.10
2019-03-20T02:10:28.786Z,29.83
2019-03-20T02:12:58.719Z,32.33
2019-03-20T02:15:38.279Z,29.57
2019-03-20T02:17:58.076Z,30.90
2019-03-20T02:20:26.781Z,28.40
2019-03-20T02:22:55.342Z,29.50
2019-03-20T02:25:23.988Z,28.97
2019-03-20T02:27:52.820Z,27.57
2019-03-20T02:30:21.465Z,27.20
2019-03-20T02:32:50.115Z,26.17
2019-03-20T02:35:18.719Z,27.80
2019-03-20T02:37:47.358Z,28.40
2019-03-20T02:40:16.379Z,27.47
2019-03-20T02:42:44.986Z,25.73
2019-03-20T02:45:17.169Z,27.37
2019-03-20T02:47:45.814Z,26.17
2019-03-20T02:50:15.959Z,25.53
2019-03-20T02:52:44.559Z,24.70
2019-03-20T02:55:13.801Z,24.27
2019-03-20T02:57:42.601Z,24.43
2019-03-20T03:00:19.727Z,24.37
2019-03-20T03:02:48.374Z,22.90
2019-03-20T03:05:17.985Z,23.97
2019-03-20T03:07:46.697Z,22.90
2019-03-20T03:10:18.885Z,23.10
2019-03-20T03:12:47.439Z,22.20
2019-03-20T03:15:16.872Z,23.90
2019-03-20T03:17:45.639Z,24.83
2019-03-20T03:20:15.787Z,23.80
2019-03-20T03:22:44.835Z,23.77
2019-03-20T03:25:14.590Z,24.10
2019-03-20T03:27:43.571Z,23.80
2019-03-20T03:30:17.142Z,24.10
2019-03-20T03:32:46.700Z,22.40
2019-03-20T03:35:18.617Z,22.83
2019-03-20T03:37:46.347Z,23.07
2019-03-20T03:40:18.948Z,22.80
2019-03-20T03:42:47.828Z,24.87
2019-03-20T03:45:17.513Z,23.07
2019-03-20T03:47:46.160Z,23.57
2019-03-20T03:50:15.097Z,23.63
2019-03-20T03:52:43.891Z,23.93
2019-03-20T03:55:13.563Z,24.13
2019-03-20T03:57:42.404Z,23.70
2019-03-20T04:00:16.086Z,24.50
2019-03-20T04:02:44.779Z,24.80
2019-03-20T04:05:14.018Z,23.30
2019-03-20T04:07:42.851Z,25.43
2019-03-20T04:10:13.304Z,24.80
2019-03-20T04:12:41.965Z,24.43
2019-03-20T04:15:14.918Z,24.43
2019-03-20T04:17:43.736Z,23.40
2019-03-20T04:20:17.148Z,25.23
2019-03-20T04:22:45.874Z,26.00
2019-03-20T04:25:14.580Z,27.07
2019-03-20T04:27:43.160Z,24.23
2019-03-20T04:30:14.846Z,24.43
2019-03-20T04:32:43.502Z,25.53
2019-03-20T04:35:12.704Z,25.90
2019-03-20T04:37:41.463Z,25.20
2019-03-20T04:40:15.376Z,26.00
2019-03-20T04:42:44.149Z,26.50
2019-03-20T04:45:13.879Z,26.00
2019-03-20T04:47:42.683Z,26.13
2019-03-20T04:50:12.400Z,25.43
2019-03-20T04:52:41.093Z,26.50
2019-03-20T04:55:10.585Z,25.50
2019-03-20T04:57:39.329Z,27.60
2019-03-20T05:00:19.576Z,27.27
2019-03-20T05:02:48.240Z,25.90
2019-03-20T05:05:16.954Z,26.83
2019-03-20T05:07:45.714Z,26.80
2019-03-20T05:10:15.911Z,28.37
2019-03-20T05:12:44.576Z,27.87
2019-03-20T05:15:14.510Z,26.80
2019-03-20T05:17:43.095Z,27.17
2019-03-20T05:20:13.878Z,27.97
2019-03-20T05:22:42.563Z,27.80
2019-03-20T05:25:11.282Z,27.17
2019-03-20T05:27:39.878Z,27.07
2019-03-20T05:30:11.352Z,26.17
2019-03-20T05:32:40.000Z,25.93
2019-03-20T05:35:09.072Z,27.57
2019-03-20T05:37:37.705Z,27.03
2019-03-20T05:40:09.815Z,26.17
2019-03-20T05:42:38.385Z,25.77
2019-03-20T05:45:10.415Z,25.87
2019-03-20T05:47:39.078Z,26.50
2019-03-20T05:50:10.858Z,27.63
2019-03-20T05:52:39.434Z,26.47
2019-03-20T05:55:08.686Z,28.27
2019-03-20T05:57:37.426Z,26.23
2019-03-20T06:00:09.391Z,26.77
2019-03-20T06:02:38.028Z,26.27
2019-03-20T06:05:07.682Z,24.47
2019-03-20T06:07:36.263Z,23.07
2019-03-20T06:10:08.415Z,23.00
2019-03-20T06:12:37.569Z,22.80
2019-03-20T06:15:07.412Z,23.40
2019-03-20T06:17:38.886Z,21.57
2019-03-20T06:20:10.413Z,20.90
2019-03-20T06:22:42.805Z,22.20
2019-03-20T06:25:14.468Z,21.97
2019-03-20T06:27:43.195Z,21.57
2019-03-20T06:30:16.523Z,22.33
2019-03-20T06:32:45.164Z,21.93
2019-03-20T06:35:16.656Z,21.20
2019-03-20T06:37:45.401Z,22.23
2019-03-20T06:40:15.558Z,21.87
2019-03-20T06:42:44.270Z,21.17
2019-03-20T06:45:15.266Z,20.00
2019-03-20T06:47:44.067Z,19.75
2019-03-20T06:50:15.012Z,18.95
2019-03-20T06:52:46.762Z,18.77
2019-03-20T06:55:17.168Z,18.27
2019-03-20T06:57:46.044Z,18.90
2019-03-20T07:00:37.395Z,18.45
2019-03-20T07:03:10.984Z,16.48
2019-03-20T07:05:51.234Z,17.70
2019-03-20T07:08:22.132Z,17.92
2019-03-20T07:11:08.391Z,17.02
2019-03-20T07:13:37.121Z,17.48
2019-03-20T07:16:05.838Z,18.55
2019-03-20T07:18:34.856Z,18.52
2019-03-20T07:21:09.586Z,17.98
2019-03-20T07:23:38.156Z,17.82
2019-03-20T07:26:06.801Z,17.82
2019-03-20T07:28:38.201Z,18.27
2019-03-20T07:31:15.351Z,18.23
2019-03-20T07:33:37.296Z,16.93
2019-03-20T07:36:06.143Z,17.52
2019-03-20T07:38:34.898Z,17.65
2019-03-20T07:41:03.545Z,16.00
2019-03-20T07:43:32.677Z,16.00
2019-03-20T07:46:01.465Z,15.70
2019-03-20T07:48:30.210Z,15.60
2019-03-20T07:50:59.085Z,15.25
2019-03-20T07:53:27.880Z,16.27
2019-03-20T07:55:58.177Z,15.70
2019-03-20T07:58:26.897Z,15.13
2019-03-20T08:00:55.684Z,17.25
2019-03-20T08:03:24.280Z,15.13
2019-03-20T08:05:53.358Z,15.40
2019-03-20T08:08:22.245Z,15.48
2019-03-20T08:10:51.406Z,14.23
2019-03-20T08:13:20.094Z,13.35
2019-03-20T08:15:48.836Z,12.98
2019-03-20T08:18:20.415Z,13.15
2019-03-20T08:20:49.116Z,14.13
2019-03-20T08:23:19.284Z,13.40
2019-03-20T08:25:47.928Z,14.75
2019-03-20T08:28:16.734Z,14.55
2019-03-20T08:30:45.422Z,14.78
2019-03-20T08:33:15.772Z,14.07
2019-03-20T08:35:44.558Z,13.83
2019-03-20T08:38:18.263Z,13.58
2019-03-20T08:40:43.443Z,11.53
2019-03-20T08:43:12.154Z,9.53
2019-03-20T08:45:40.823Z,8.55
2019-03-20T08:48:09.472Z,8.00
2019-03-20T08:50:38.311Z,9.53
2019-03-20T08:53:07.060Z,9.85
2019-03-20T08:55:35.814Z,10.08
2019-03-20T08:58:04.884Z,10.63
2019-03-20T09:00:33.572Z,11.25
2019-03-20T09:03:02.202Z,8.65
2019-03-20T09:05:30.824Z,7.65
2019-03-20T09:07:59.676Z,7.78
2019-03-20T09:10:28.663Z,7.25
2019-03-20T09:12:57.406Z,7.10
2019-03-20T09:15:26.254Z,7.45
2019-03-20T09:17:54.880Z,6.75
2019-03-20T09:20:24.683Z,7.53
2019-03-20T09:22:53.411Z,6.92
2019-03-20T09:25:28.586Z,6.80
2019-03-20T09:27:57.408Z,5.97
2019-03-20T09:30:28.328Z,6.45
2019-03-20T09:32:57.195Z,6.25
2019-03-20T09:35:29.030Z,5.60
2019-03-20T09:37:57.899Z,5.80
2019-03-20T09:40:27.518Z,5.58
2019-03-20T09:42:56.340Z,5.40
2019-03-20T09:45:25.854Z,5.67
2019-03-20T09:47:54.488Z,5.42
2019-03-20T09:50:29.894Z,5.03
2019-03-20T09:52:58.537Z,4.67
2019-03-20T09:55:27.441Z,5.28
2019-03-20T09:57:56.209Z,5.05
2019-03-20T10:00:28.889Z,4.50
2019-03-20T10:02:57.920Z,5.33
2019-03-20T10:05:26.653Z,5.28
2019-03-20T10:07:55.517Z,5.12
2019-03-20T10:10:27.686Z,5.00
2019-03-20T10:12:56.345Z,4.87
2019-03-20T10:15:27.907Z,4.80
2019-03-20T10:17:57.095Z,3.98
2019-03-20T10:20:25.878Z,4.80
2019-03-20T10:22:54.622Z,4.97
2019-03-20T10:25:23.466Z,5.28
2019-03-20T10:27:52.320Z,5.40
2019-03-20T10:30:25.714Z,5.58
2019-03-20T10:32:54.552Z,6.83
2019-03-20T10:35:23.930Z,6.00
2019-03-20T10:37:52.803Z,5.87
2019-03-20T10:40:28.230Z,6.47
2019-03-20T10:42:57.128Z,6.10
2019-03-20T10:45:25.900Z,6.00
2019-03-20T10:47:54.710Z,7.42
2019-03-20T10:50:24.325Z,7.37
2019-03-20T10:52:53.429Z,8.70
2019-03-20T10:55:22.509Z,8.73
2019-03-20T10:57:51.182Z,8.58
2019-03-20T11:00:24.710Z,9.30
2019-03-20T11:02:53.562Z,8.60
2019-03-20T11:05:26.500Z,8.20
2019-03-20T11:07:57.979Z,9.48
2019-03-20T11:10:27.209Z,8.13
2019-03-20T11:13:02.955Z,8.28
2019-03-20T11:15:31.630Z,8.58
2019-03-20T11:18:00.418Z,6.65
2019-03-20T11:20:29.244Z,6.67
2019-03-20T11:22:57.938Z,5.75
2019-03-20T11:25:29.818Z,5.58
2019-03-20T11:27:58.549Z,5.65
2019-03-20T11:30:31.229Z,5.20
2019-03-20T11:32:59.891Z,5.08
2019-03-20T11:35:28.494Z,4.30
2019-03-20T11:37:57.341Z,5.05
2019-03-20T11:40:41.872Z,4.62
2019-03-20T11:43:10.515Z,4.17
2019-03-20T11:45:39.281Z,4.22
2019-03-20T11:48:08.168Z,3.98
2019-03-20T11:50:44.268Z,4.37
2019-03-20T11:53:12.888Z,4.40
2019-03-20T11:55:41.727Z,4.43
2019-03-20T11:58:10.335Z,4.00
2019-03-20T12:00:38.981Z,3.27
2019-03-20T12:03:23.274Z,3.33
2019-03-20T12:05:51.849Z,3.60
2019-03-20T12:08:20.663Z,4.10
2019-03-20T12:10:50.237Z,5.33
2019-03-20T12:13:19.042Z,4.33
2019-03-20T12:15:47.680Z,4.33
2019-03-20T12:18:16.423Z,4.43
2019-03-20T12:20:45.251Z,4.60
2019-03-20T12:23:13.926Z,4.33
2019-03-20T12:25:42.811Z,5.47
2019-03-20T12:28:11.549Z,5.23
2019-03-20T12:30:40.414Z,5.37
2019-03-20T12:33:09.014Z,4.53
2019-03-20T12:35:47.890Z,5.30
2019-03-20T12:38:16.556Z,5.27
2019-03-20T12:40:45.555Z,6.13
2019-03-20T12:43:14.349Z,6.27
2019-03-20T12:45:43.164Z,6.30
2019-03-20T12:48:16.673Z,6.20
2019-03-20T12:50:45.404Z,6.70
2019-03-20T12:53:20.075Z,6.20
2019-03-20T12:55:48.727Z,7.67
2019-03-20T12:58:17.393Z,7.40
2019-03-20T13:05:42.863Z,7.93
2019-03-20T13:08:11.638Z,7.77
2019-03-20T13:10:40.405Z,7.43
2019-03-20T13:13:09.203Z,9.00
2019-03-20T13:15:37.923Z,8.73
2019-03-20T13:18:06.659Z,8.17
2019-03-20T13:20:35.620Z,8.07
2019-03-20T13:23:26.914Z,6.57
2019-03-20T13:25:55.633Z,7.70
2019-03-20T13:28:24.171Z,8.40
2019-03-20T13:30:58.165Z,7.27
2019-03-20T13:33:26.755Z,6.30
2019-03-20T13:35:58.591Z,7.00
2019-03-20T13:38:27.816Z,8.37
2019-03-20T13:40:56.563Z,7.97
2019-03-20T13:43:25.221Z,8.00
2019-03-20T13:45:53.867Z,7.23
2019-03-20T13:48:22.482Z,6.63
2019-03-20T13:50:51.151Z,6.90
2019-03-20T13:53:19.815Z,7.30
2019-03-20T13:55:48.435Z,6.60
2019-03-20T13:58:17.163Z,6.77
2019-03-20T14:00:46.120Z,6.57
2019-03-20T14:03:18.051Z,6.60
2019-03-20T14:05:46.943Z,6.30
2019-03-20T14:08:15.805Z,5.90
2019-03-20T14:10:50.435Z,6.33
2019-03-20T14:13:17.529Z,6.20
2019-03-20T14:15:46.265Z,6.37
2019-03-20T14:18:14.885Z,6.67
2019-03-20T14:20:43.558Z,6.43
2019-03-20T14:23:12.228Z,7.30
2019-03-20T14:25:41.086Z,7.63
2019-03-20T14:28:09.849Z,7.13
2019-03-20T14:30:40.537Z,7.77
2019-03-20T14:33:09.241Z,6.83
2019-03-20T14:35:37.837Z,7.17
2019-03-20T14:38:06.438Z,7.23
2019-03-20T14:40:36.961Z,6.77
2019-03-20T14:43:06.000Z,6.13
2019-03-20T14:45:49.972Z,5.80
2019-03-20T14:48:18.647Z,6.07
2019-03-20T14:50:47.342Z,6.27
2019-03-20T14:53:16.030Z,5.77
2019-03-20T14:55:47.626Z,6.20
2019-03-20T14:58:16.351Z,6.43
2019-03-20T15:00:45.178Z,6.50
2019-03-20T15:03:13.822Z,6.37
2019-03-20T15:05:42.569Z,7.17
2019-03-20T15:08:11.217Z,6.33
2019-03-20T15:10:45.888Z,6.23
2019-03-20T15:13:10.081Z,6.87
2019-03-20T15:15:53.901Z,6.80
2019-03-20T15:18:22.543Z,5.93
2019-03-20T15:20:51.290Z,6.87
2019-03-20T15:23:19.972Z,7.30
2019-03-20T15:25:48.753Z,7.20
2019-03-20T15:28:17.460Z,6.90
2019-03-20T15:30:46.273Z,6.60
2019-03-20T15:33:14.978Z,7.47
2019-03-20T15:35:43.727Z,7.87
2019-03-20T15:38:12.470Z,7.73
2019-03-20T15:40:41.039Z,8.17
2019-03-20T15:43:09.777Z,7.43
2019-03-20T15:45:39.738Z,7.73
2019-03-20T15:48:08.435Z,7.60
2019-03-20T15:50:37.158Z,6.97
2019-03-20T15:53:06.069Z,7.60
2019-03-20T15:55:37.721Z,8.48
2019-03-20T15:58:06.417Z,6.73
2019-03-20T16:00:35.181Z,7.50
2019-03-20T16:03:09.586Z,7.37
2019-03-20T16:05:38.341Z,7.50
2019-03-20T16:08:07.358Z,7.93
2019-03-20T16:10:36.238Z,8.23
2019-03-20T16:13:05.470Z,8.20
2019-03-20T16:15:34.301Z,8.73
2019-03-20T16:18:03.033Z,7.27
2019-03-20T16:20:31.767Z,7.27
2019-03-20T16:23:03.443Z,7.73
2019-03-20T16:25:32.103Z,7.53
2019-03-20T16:28:00.658Z,6.93
2019-03-20T16:30:32.912Z,7.50
2019-03-20T16:33:01.798Z,8.50
2019-03-20T16:35:30.534Z,6.80
2019-03-20T16:37:59.263Z,7.97
2019-03-20T16:40:29.954Z,7.13
2019-03-20T16:42:58.665Z,7.47
2019-03-20T16:45:29.284Z,7.87
2019-03-20T16:47:57.951Z,7.77
2019-03-20T16:50:26.792Z,7.87
2019-03-20T16:52:55.451Z,7.40
2019-03-20T16:55:24.378Z,8.40
2019-03-20T16:57:53.127Z,8.43
2019-03-20T17:00:24.778Z,9.77
2019-03-20T17:02:53.458Z,8.63
2019-03-20T17:05:26.911Z,9.43
2019-03-20T17:07:55.706Z,8.43
2019-03-20T17:10:40.202Z,8.77
2019-03-20T17:13:09.014Z,9.13
2019-03-20T17:15:39.960Z,9.97
2019-03-20T17:18:08.756Z,10.07
2019-03-20T17:20:37.490Z,9.63
2019-03-20T17:23:07.909Z,10.70
2019-03-20T17:25:36.966Z,10.23
2019-03-20T17:28:06.899Z,10.20
2019-03-20T17:30:40.816Z,11.07
2019-03-20T17:33:09.596Z,11.40
2019-03-20T17:35:38.346Z,10.70
2019-03-20T17:38:07.578Z,11.43
2019-03-20T17:40:36.265Z,11.83
2019-03-20T17:43:05.788Z,12.07
2019-03-20T17:45:35.281Z,11.37
2019-03-20T17:48:04.152Z,11.30
2019-03-20T17:50:33.986Z,11.73
2019-03-20T17:53:03.487Z,12.30
2019-03-20T17:55:32.124Z,11.60
2019-03-20T17:58:00.843Z,11.47
2019-03-20T18:00:41.055Z,12.27
2019-03-20T18:03:09.812Z,12.50
2019-03-20T18:05:38.558Z,13.07
2019-03-20T18:08:08.270Z,12.87
2019-03-20T18:10:36.965Z,13.87
2019-03-20T18:13:06.989Z,13.57
2019-03-20T18:15:35.896Z,13.23
2019-03-20T18:18:05.662Z,13.80
2019-03-20T18:20:34.495Z,14.07
2019-03-20T18:23:03.222Z,14.67
2019-03-20T18:25:31.969Z,15.00
2019-03-20T18:28:00.725Z,14.83
2019-03-20T18:30:38.695Z,14.67
2019-03-20T18:33:07.451Z,15.87
2019-03-20T18:35:36.245Z,16.00
2019-03-20T18:38:06.184Z,15.83
2019-03-20T18:40:34.974Z,15.47
2019-03-20T18:43:06.698Z,14.80
2019-03-20T18:45:35.540Z,14.47
2019-03-20T18:48:04.655Z,14.53
2019-03-20T18:50:33.589Z,13.00
2019-03-20T18:53:02.293Z,12.87
2019-03-20T18:55:30.988Z,13.90
2019-03-20T18:57:59.619Z,12.93
2019-03-20T19:00:33.448Z,12.50
2019-03-20T19:03:05.124Z,13.30
2019-03-20T19:05:39.460Z,13.13
2019-03-20T19:08:08.167Z,13.60
2019-03-20T19:10:39.495Z,14.03
2019-03-20T19:13:08.358Z,13.30
2019-03-20T19:15:37.590Z,14.27
2019-03-20T19:18:06.240Z,14.43
2019-03-20T19:20:37.731Z,15.63
2019-03-20T19:23:06.468Z,14.87
2019-03-20T19:25:38.348Z,15.00
2019-03-20T19:28:11.482Z,15.57
2019-03-20T19:30:40.292Z,15.43
2019-03-20T19:33:08.975Z,15.13
2019-03-20T19:35:37.741Z,14.70
2019-03-20T19:38:06.493Z,14.60
2019-03-20T19:40:35.247Z,14.67
2019-03-20T19:43:04.009Z,15.23
2019-03-20T19:45:34.729Z,13.70
2019-03-20T19:48:03.192Z,17.17
2019-03-20T19:50:31.967Z,15.80
2019-03-20T19:53:00.788Z,15.50
2019-03-20T19:55:29.544Z,16.90
2019-03-20T19:58:01.265Z,16.60
2019-03-20T20:00:30.010Z,16.33
2019-03-20T20:02:58.970Z,18.57
2019-03-20T20:05:39.999Z,16.13
2019-03-20T20:08:08.587Z,16.07
2019-03-20T20:10:37.614Z,16.40
2019-03-20T20:13:06.326Z,15.63
2019-03-20T20:15:35.910Z,15.70
2019-03-20T20:18:04.649Z,16.10
2019-03-20T20:20:42.526Z,16.73
2019-03-20T20:23:11.200Z,15.73
2019-03-20T20:25:40.059Z,15.27
2019-03-20T20:28:11.203Z,17.67
2019-03-20T20:30:38.974Z,16.00
2019-03-20T20:33:08.034Z,16.10
2019-03-20T20:35:36.625Z,17.17
2019-03-20T20:38:05.467Z,16.40
2019-03-20T20:40:34.334Z,16.23
2019-03-20T20:43:03.053Z,15.07
2019-03-20T20:45:31.979Z,15.10
2019-03-20T20:48:00.964Z,14.43
2019-03-20T20:50:29.587Z,16.73
2019-03-20T20:52:58.364Z,15.23
2019-03-20T20:55:27.360Z,15.67
2019-03-20T20:57:56.239Z,15.57
2019-03-20T21:00:26.010Z,15.27
2019-03-20T21:02:54.829Z,14.87
2019-03-20T21:05:23.630Z,15.00
2019-03-20T21:07:52.272Z,13.20
2019-03-20T21:10:27.089Z,14.80
2019-03-20T21:12:57.320Z,14.60
2019-03-20T21:15:32.278Z,14.07
2019-03-20T21:18:12.216Z,13.27
2019-03-20T21:20:40.379Z,13.50
2019-03-20T21:23:38.053Z,13.23
2019-03-20T21:26:09.248Z,14.57
2019-03-20T21:29:14.575Z,13.73
2019-03-20T21:31:52.120Z,13.50
2019-03-20T21:34:49.440Z,13.47
2019-03-20T21:37:36.108Z,13.67
2019-03-20T21:40:08.041Z,15.10
2019-03-20T21:42:52.015Z,14.30
2019-03-20T21:45:35.548Z,14.67
2019-03-20T21:48:04.313Z,13.67
2019-03-20T21:50:54.319Z,12.87
2019-03-20T21:53:48.379Z,13.13
2019-03-20T21:56:35.023Z,13.37
2019-03-20T21:59:28.041Z,12.87
2019-03-20T22:02:19.643Z,12.93
2019-03-20T22:04:48.493Z,13.43
2019-03-20T22:07:17.111Z,12.63
2019-03-20T22:09:54.714Z,12.80
2019-03-20T22:12:29.469Z,13.87
2019-03-20T22:15:06.762Z,12.27
2019-03-20T22:17:50.571Z,13.17
2019-03-20T22:20:26.234Z,13.53
2019-03-20T22:23:03.726Z,12.87
2019-03-20T22:25:53.504Z,12.60
2019-03-20T22:29:00.205Z,13.87
2019-03-20T22:31:30.818Z,12.83
2019-03-20T22:34:34.405Z,12.00
2019-03-20T22:37:03.146Z,11.63
2019-03-20T22:40:07.943Z,11.77
2019-03-20T22:42:57.779Z,12.00
2019-03-20T22:46:03.095Z,12.47
2019-03-20T22:48:47.022Z,11.23
2019-03-20T22:51:30.366Z,10.73
2019-03-20T22:54:10.897Z,11.97
2019-03-20T22:56:42.679Z,11.87
2019-03-20T22:59:11.430Z,11.23
2019-03-20T23:01:48.895Z,11.33
2019-03-20T23:04:23.191Z,10.50
2019-03-20T23:06:51.939Z,10.87
2019-03-20T23:09:20.644Z,11.87
2019-03-20T23:11:49.273Z,10.93
2019-03-20T23:14:18.002Z,11.23
2019-03-20T23:16:46.881Z,10.27
2019-03-20T23:19:15.535Z,10.10
2019-03-20T23:21:44.251Z,11.57
2019-03-20T23:24:12.996Z,10.33
2019-03-20T23:26:41.696Z,9.23
2019-03-20T23:29:10.349Z,10.30
2019-03-20T23:31:38.944Z,10.53
2019-03-20T23:34:07.615Z,10.13
2019-03-20T23:36:36.338Z,8.93
2019-03-20T23:39:10.099Z,10.20
2019-03-20T23:41:38.682Z,10.70
2019-03-20T23:44:07.262Z,11.10
2019-03-20T23:46:36.454Z,9.90
2019-03-20T23:49:10.844Z,8.70
2019-03-20T23:51:39.652Z,9.60
2019-03-20T23:54:08.795Z,10.43
2019-03-20T23:56:40.279Z,10.43
2019-03-20T23:59:08.974Z,9.43
